KCAR/CAR METAR and TAF weather

Enter ICAO airport designator
Station Type Date Time Source
KCAR METAR 2021/09/25 04:16 UTC NOAA

KCAR 250416Z AUTO 24016G22KT 1 3/4SM +RA BR FEW004 SCT008 OVC014 19/17 A3001 RMK AO2 PRESRR P0008 T01890167


Station Type Date Time Source
KCAR Decoded METAR 2021/09/25 04:16 UTC NOAA

CARIBOU MUNICIPAL AIRPORT, ME, United States (KCAR) 46-52N 68-01W 191M
Sep 25, 2021 - 12:16 AM EDT / 2021.09.25 0416 UTC
Wind: from the WSW (240 degrees) at 18 MPH (16 KT) gusting to 25 MPH (22 KT):0
Visibility: 1 3/4 mile(s):0
Sky conditions: overcast
Weather: heavy rain; mist
Precipitation last hour: 0.08 inches
Temperature: 66.0 F (18.9 C)
Dew Point: 62.1 F (16.7 C)
Relative Humidity: 87%
Pressure (altimeter): 30.01 in. Hg (1016 hPa)
Pressure tendency: rising rapidly
ob: KCAR 250416Z AUTO 24016G22KT 1 3/4SM +RA BR FEW004 SCT008 OVC014 19/17 A3001 RMK AO2 PRESRR P0008 T01890167
cycle: 4

Station Type Date Time Source
KCAR TAF 2021/09/25 00:12 UTC NOAA

TAF
AMD KCAR 250009Z 2500/2524 16013G21KT P6SM VCSH OVC025
FM250300 17011KT 3SM -RA BR OVC020
FM250700 19007KT 2SM -RA BR OVC007
FM251400 20003KT 5SM -RA BR OVC020
FM251700 14004KT 5SM -RA BR BKN017

Example: see airport list